sensor_id;sensor_type;location;lat;lon;timestamp;P1;durP1;ratioP1;P2;durP2;ratioP2
35612;SDS011;22054;51.646;7.078;2023-03-01T00:02:02;0.15;;;0.15;;
35612;SDS011;22054;51.646;7.078;2023-03-01T00:04:29;0.13;;;0.13;;
35612;SDS011;22054;51.646;7.078;2023-03-01T00:06:55;0.10;;;0.10;;
35612;SDS011;22054;51.646;7.078;2023-03-01T00:09:21;0.10;;;0.10;;
35612;SDS011;22054;51.646;7.078;2023-03-01T00:11:47;0.10;;;0.10;;
35612;SDS011;22054;51.646;7.078;2023-03-01T00:14:13;0.10;;;0.10;;
35612;SDS011;22054;51.646;7.078;2023-03-01T00:16:41;0.10;;;0.10;;
35612;SDS011;22054;51.646;7.078;2023-03-01T00:19:12;0.10;;;0.10;;
35612;SDS011;22054;51.646;7.078;2023-03-01T00:21:43;0.10;;;0.10;;
35612;SDS011;22054;51.646;7.078;2023-03-01T00:24:09;0.10;;;0.10;;
35612;SDS011;22054;51.646;7.078;2023-03-01T00:26:35;0.10;;;0.10;;
35612;SDS011;22054;51.646;7.078;2023-03-01T00:29:02;0.08;;;0.08;;
35612;SDS011;22054;51.646;7.078;2023-03-01T00:31:29;0.10;;;0.10;;
35612;SDS011;22054;51.646;7.078;2023-03-01T00:33:58;0.10;;;0.10;;
35612;SDS011;22054;51.646;7.078;2023-03-01T00:36:27;0.00;;;0.00;;
35612;SDS011;22054;51.646;7.078;2023-03-01T00:38:57;0.10;;;0.10;;
35612;SDS011;22054;51.646;7.078;2023-03-01T00:41:23;0.10;;;0.10;;
35612;SDS011;22054;51.646;7.078;2023-03-01T00:43:51;0.10;;;0.10;;
35612;SDS011;22054;51.646;7.078;2023-03-01T00:46:18;0.10;;;0.10;;
35612;SDS011;22054;51.646;7.078;2023-03-01T00:48:48;0.10;;;0.10;;
35612;SDS011;22054;51.646;7.078;2023-03-01T00:51:15;0.10;;;0.10;;
35612;SDS011;22054;51.646;7.078;2023-03-01T00:53:44;0.10;;;0.10;;
35612;SDS011;22054;51.646;7.078;2023-03-01T00:56:11;0.10;;;0.10;;
35612;SDS011;22054;51.646;7.078;2023-03-01T00:58:39;0.10;;;0.10;;
35612;SDS011;22054;51.646;7.078;2023-03-01T01:01:12;0.10;;;0.10;;
35612;SDS011;22054;51.646;7.078;2023-03-01T01:03:51;0.10;;;0.10;;
35612;SDS011;22054;51.646;7.078;2023-03-01T01:06:21;0.10;;;0.10;;
35612;SDS011;22054;51.646;7.078;2023-03-01T01:08:53;0.20;;;0.20;;
35612;SDS011;22054;51.646;7.078;2023-03-01T01:11:21;0.20;;;0.20;;
35612;SDS011;22054;51.646;7.078;2023-03-01T01:13:49;0.30;;;0.30;;
35612;SDS011;22054;51.646;7.078;2023-03-01T01:16:16;0.40;;;0.40;;
35612;SDS011;22054;51.646;7.078;2023-03-01T01:18:46;0.40;;;0.40;;
35612;SDS011;22054;51.646;7.078;2023-03-01T01:21:13;1.08;;;1.08;;
35612;SDS011;22054;51.646;7.078;2023-03-01T01:26:11;1.50;;;1.50;;
35612;SDS011;22054;51.646;7.078;2023-03-01T01:28:45;0.60;;;0.60;;
35612;SDS011;22054;51.646;7.078;2023-03-01T01:31:11;3.63;;;3.53;;
35612;SDS011;22054;51.646;7.078;2023-03-01T01:33:38;1.85;;;1.83;;
35612;SDS011;22054;51.646;7.078;2023-03-01T01:36:04;1.92;;;1.83;;
35612;SDS011;22054;51.646;7.078;2023-03-01T01:38:31;2.20;;;2.10;;
35612;SDS011;22054;51.646;7.078;2023-03-01T01:40:58;2.35;;;2.25;;
35612;SDS011;22054;51.646;7.078;2023-03-01T01:43:26;2.80;;;2.70;;
35612;SDS011;22054;51.646;7.078;2023-03-01T01:46:03;4.53;;;4.32;;
35612;SDS011;22054;51.646;7.078;2023-03-01T01:48:44;1.90;;;1.80;;
35612;SDS011;22054;51.646;7.078;2023-03-01T01:51:16;2.35;;;2.25;;
35612;SDS011;22054;51.646;7.078;2023-03-01T01:53:49;2.00;;;1.90;;
35612;SDS011;22054;51.646;7.078;2023-03-01T01:56:23;0.10;;;0.10;;
35612;SDS011;22054;51.646;7.078;2023-03-01T01:58:50;0.10;;;0.10;;
35612;SDS011;22054;51.646;7.078;2023-03-01T02:04:05;0.10;;;0.10;;
35612;SDS011;22054;51.646;7.078;2023-03-01T02:06:39;0.10;;;0.10;;
35612;SDS011;22054;51.646;7.078;2023-03-01T02:09:15;0.15;;;0.15;;
35612;SDS011;22054;51.646;7.078;2023-03-01T02:11:46;0.10;;;0.10;;
35612;SDS011;22054;51.646;7.078;2023-03-01T02:14:13;0.10;;;0.10;;
35612;SDS011;22054;51.646;7.078;2023-03-01T02:16:41;0.20;;;0.20;;
35612;SDS011;22054;51.646;7.078;2023-03-01T02:19:08;0.10;;;0.10;;
35612;SDS011;22054;51.646;7.078;2023-03-01T02:27:33;0.10;;;0.10;;
35612;SDS011;22054;51.646;7.078;2023-03-01T02:30:10;0.10;;;0.10;;
35612;SDS011;22054;51.646;7.078;2023-03-01T02:32:38;0.17;;;0.17;;
35612;SDS011;22054;51.646;7.078;2023-03-01T02:35:12;0.10;;;0.10;;
35612;SDS011;22054;51.646;7.078;2023-03-01T02:37:41;0.40;;;0.40;;
35612;SDS011;22054;51.646;7.078;2023-03-01T02:40:09;0.70;;;0.70;;
35612;SDS011;22054;51.646;7.078;2023-03-01T02:42:56;0.10;;;0.10;;
35612;SDS011;22054;51.646;7.078;2023-03-01T02:45:23;0.10;;;0.10;;
35612;SDS011;22054;51.646;7.078;2023-03-01T02:47:55;0.10;;;0.10;;
35612;SDS011;22054;51.646;7.078;2023-03-01T02:55:41;0.10;;;0.10;;
35612;SDS011;22054;51.646;7.078;2023-03-01T02:58:07;0.10;;;0.10;;
35612;SDS011;22054;51.646;7.078;2023-03-01T03:00:37;0.10;;;0.10;;
35612;SDS011;22054;51.646;7.078;2023-03-01T03:03:10;0.10;;;0.10;;
35612;SDS011;22054;51.646;7.078;2023-03-01T03:05:39;0.10;;;0.10;;
35612;SDS011;22054;51.646;7.078;2023-03-01T03:08:06;0.10;;;0.10;;
35612;SDS011;22054;51.646;7.078;2023-03-01T03:10:34;0.10;;;0.10;;
35612;SDS011;22054;51.646;7.078;2023-03-01T03:13:08;0.10;;;0.10;;
35612;SDS011;22054;51.646;7.078;2023-03-01T03:15:40;0.10;;;0.10;;
35612;SDS011;22054;51.646;7.078;2023-03-01T03:18:08;0.10;;;0.10;;
35612;SDS011;22054;51.646;7.078;2023-03-01T03:20:38;0.20;;;0.20;;
35612;SDS011;22054;51.646;7.078;2023-03-01T03:23:06;0.10;;;0.10;;
35612;SDS011;22054;51.646;7.078;2023-03-01T03:25:35;0.10;;;0.10;;
35612;SDS011;22054;51.646;7.078;2023-03-01T03:28:04;0.10;;;0.10;;
35612;SDS011;22054;51.646;7.078;2023-03-01T03:30:36;0.10;;;0.10;;
35612;SDS011;22054;51.646;7.078;2023-03-01T03:33:04;0.10;;;0.10;;
35612;SDS011;22054;51.646;7.078;2023-03-01T03:35:32;0.10;;;0.10;;
35612;SDS011;22054;51.646;7.078;2023-03-01T03:38:06;0.10;;;0.10;;
35612;SDS011;22054;51.646;7.078;2023-03-01T03:40:41;0.10;;;0.10;;
35612;SDS011;22054;51.646;7.078;2023-03-01T03:43:11;0.10;;;0.10;;
35612;SDS011;22054;51.646;7.078;2023-03-01T03:45:47;0.10;;;0.10;;
35612;SDS011;22054;51.646;7.078;2023-03-01T03:48:16;0.10;;;0.10;;
35612;SDS011;22054;51.646;7.078;2023-03-01T03:50:46;0.10;;;0.10;;
35612;SDS011;22054;51.646;7.078;2023-03-01T03:53:15;0.10;;;0.10;;
35612;SDS011;22054;51.646;7.078;2023-03-01T03:55:41;0.10;;;0.10;;
35612;SDS011;22054;51.646;7.078;2023-03-01T03:58:07;0.10;;;0.10;;
35612;SDS011;22054;51.646;7.078;2023-03-01T04:00:35;0.10;;;0.10;;
35612;SDS011;22054;51.646;7.078;2023-03-01T04:03:07;0.10;;;0.10;;
35612;SDS011;22054;51.646;7.078;2023-03-01T04:05:33;0.10;;;0.10;;
35612;SDS011;22054;51.646;7.078;2023-03-01T04:08:00;0.10;;;0.10;;
35612;SDS011;22054;51.646;7.078;2023-03-01T04:10:27;0.10;;;0.10;;
35612;SDS011;22054;51.646;7.078;2023-03-01T04:13:02;0.10;;;0.10;;
35612;SDS011;22054;51.646;7.078;2023-03-01T04:15:33;0.10;;;0.10;;
35612;SDS011;22054;51.646;7.078;2023-03-01T04:18:01;0.10;;;0.10;;
35612;SDS011;22054;51.646;7.078;2023-03-01T04:20:28;0.10;;;0.10;;
35612;SDS011;22054;51.646;7.078;2023-03-01T04:22:59;0.10;;;0.10;;
35612;SDS011;22054;51.646;7.078;2023-03-01T04:28:27;0.10;;;0.10;;
35612;SDS011;22054;51.646;7.078;2023-03-01T04:31:01;0.10;;;0.10;;
35612;SDS011;22054;51.646;7.078;2023-03-01T04:33:41;0.10;;;0.10;;
35612;SDS011;22054;51.646;7.078;2023-03-01T04:36:09;0.10;;;0.10;;
35612;SDS011;22054;51.646;7.078;2023-03-01T04:38:36;0.10;;;0.10;;
35612;SDS011;22054;51.646;7.078;2023-03-01T04:41:05;0.10;;;0.10;;
35612;SDS011;22054;51.646;7.078;2023-03-01T04:43:33;0.10;;;0.10;;
35612;SDS011;22054;51.646;7.078;2023-03-01T04:46:03;0.10;;;0.10;;
35612;SDS011;22054;51.646;7.078;2023-03-01T04:48:36;0.10;;;0.10;;
35612;SDS011;22054;51.646;7.078;2023-03-01T04:51:03;0.20;;;0.20;;
35612;SDS011;22054;51.646;7.078;2023-03-01T04:53:30;0.10;;;0.10;;
35612;SDS011;22054;51.646;7.078;2023-03-01T04:55:58;0.10;;;0.10;;
35612;SDS011;22054;51.646;7.078;2023-03-01T04:58:27;0.10;;;0.10;;
35612;SDS011;22054;51.646;7.078;2023-03-01T05:00:53;0.20;;;0.20;;
35612;SDS011;22054;51.646;7.078;2023-03-01T05:03:20;0.20;;;0.20;;
35612;SDS011;22054;51.646;7.078;2023-03-01T05:05:48;0.10;;;0.10;;
35612;SDS011;22054;51.646;7.078;2023-03-01T05:08:15;0.10;;;0.10;;
35612;SDS011;22054;51.646;7.078;2023-03-01T05:10:51;0.10;;;0.10;;
35612;SDS011;22054;51.646;7.078;2023-03-01T05:13:18;0.10;;;0.10;;
35612;SDS011;22054;51.646;7.078;2023-03-01T05:15:59;0.10;;;0.10;;
35612;SDS011;22054;51.646;7.078;2023-03-01T05:18:27;0.10;;;0.10;;
35612;SDS011;22054;51.646;7.078;2023-03-01T05:21:03;0.10;;;0.10;;
35612;SDS011;22054;51.646;7.078;2023-03-01T05:23:32;0.20;;;0.20;;
35612;SDS011;22054;51.646;7.078;2023-03-01T05:26:00;0.20;;;0.20;;
35612;SDS011;22054;51.646;7.078;2023-03-01T05:28:27;0.10;;;0.10;;
35612;SDS011;22054;51.646;7.078;2023-03-01T05:30:53;0.10;;;0.10;;
35612;SDS011;22054;51.646;7.078;2023-03-01T05:33:19;0.10;;;0.10;;
35612;SDS011;22054;51.646;7.078;2023-03-01T05:35:47;0.10;;;0.10;;
35612;SDS011;22054;51.646;7.078;2023-03-01T05:38:14;0.10;;;0.10;;
35612;SDS011;22054;51.646;7.078;2023-03-01T05:40:41;0.20;;;0.20;;
35612;SDS011;22054;51.646;7.078;2023-03-01T05:43:09;0.15;;;0.15;;
35612;SDS011;22054;51.646;7.078;2023-03-01T05:45:36;0.10;;;0.10;;
35612;SDS011;22054;51.646;7.078;2023-03-01T05:48:05;0.10;;;0.10;;
35612;SDS011;22054;51.646;7.078;2023-03-01T05:50:34;0.10;;;0.10;;
35612;SDS011;22054;51.646;7.078;2023-03-01T05:53:03;0.10;;;0.10;;
35612;SDS011;22054;51.646;7.078;2023-03-01T05:55:41;0.20;;;0.20;;
35612;SDS011;22054;51.646;7.078;2023-03-01T05:58:10;0.10;;;0.10;;
35612;SDS011;22054;51.646;7.078;2023-03-01T06:00:39;0.10;;;0.10;;
35612;SDS011;22054;51.646;7.078;2023-03-01T06:03:05;0.20;;;0.20;;
35612;SDS011;22054;51.646;7.078;2023-03-01T06:05:31;0.20;;;0.20;;
35612;SDS011;22054;51.646;7.078;2023-03-01T06:07:58;0.10;;;0.10;;
35612;SDS011;22054;51.646;7.078;2023-03-01T06:10:25;0.10;;;0.10;;
35612;SDS011;22054;51.646;7.078;2023-03-01T06:12:50;0.10;;;0.10;;
35612;SDS011;22054;51.646;7.078;2023-03-01T06:15:16;0.20;;;0.20;;
35612;SDS011;22054;51.646;7.078;2023-03-01T06:17:44;0.20;;;0.20;;
35612;SDS011;22054;51.646;7.078;2023-03-01T06:20:21;0.20;;;0.20;;
35612;SDS011;22054;51.646;7.078;2023-03-01T06:22:48;0.20;;;0.20;;
35612;SDS011;22054;51.646;7.078;2023-03-01T06:25:16;0.20;;;0.20;;
35612;SDS011;22054;51.646;7.078;2023-03-01T06:27:45;0.10;;;0.10;;
35612;SDS011;22054;51.646;7.078;2023-03-01T06:30:14;0.10;;;0.10;;
35612;SDS011;22054;51.646;7.078;2023-03-01T06:32:42;0.20;;;0.20;;
35612;SDS011;22054;51.646;7.078;2023-03-01T06:35:09;0.20;;;0.20;;
35612;SDS011;22054;51.646;7.078;2023-03-01T06:37:37;0.20;;;0.20;;
35612;SDS011;22054;51.646;7.078;2023-03-01T06:40:04;0.30;;;0.30;;
35612;SDS011;22054;51.646;7.078;2023-03-01T06:42:33;0.30;;;0.30;;
35612;SDS011;22054;51.646;7.078;2023-03-01T06:45:00;0.20;;;0.20;;
35612;SDS011;22054;51.646;7.078;2023-03-01T06:47:26;0.52;;;0.52;;
35612;SDS011;22054;51.646;7.078;2023-03-01T06:49:52;0.40;;;0.40;;
35612;SDS011;22054;51.646;7.078;2023-03-01T06:52:19;0.20;;;0.20;;
35612;SDS011;22054;51.646;7.078;2023-03-01T06:54:44;0.30;;;0.30;;
35612;SDS011;22054;51.646;7.078;2023-03-01T06:57:10;0.30;;;0.30;;
35612;SDS011;22054;51.646;7.078;2023-03-01T06:59:36;0.50;;;0.50;;
35612;SDS011;22054;51.646;7.078;2023-03-01T07:02:02;0.30;;;0.30;;
35612;SDS011;22054;51.646;7.078;2023-03-01T07:04:27;0.20;;;0.20;;
35612;SDS011;22054;51.646;7.078;2023-03-01T07:06:54;0.35;;;0.35;;
35612;SDS011;22054;51.646;7.078;2023-03-01T07:09:20;0.30;;;0.30;;
35612;SDS011;22054;51.646;7.078;2023-03-01T07:11:48;0.20;;;0.20;;
35612;SDS011;22054;51.646;7.078;2023-03-01T07:14:15;0.20;;;0.20;;
35612;SDS011;22054;51.646;7.078;2023-03-01T07:16:52;0.10;;;0.10;;
35612;SDS011;22054;51.646;7.078;2023-03-01T07:19:18;0.20;;;0.20;;
35612;SDS011;22054;51.646;7.078;2023-03-01T07:21:45;0.20;;;0.20;;
35612;SDS011;22054;51.646;7.078;2023-03-01T07:24:11;0.20;;;0.20;;
35612;SDS011;22054;51.646;7.078;2023-03-01T07:26:37;0.20;;;0.20;;
35612;SDS011;22054;51.646;7.078;2023-03-01T07:29:03;0.32;;;0.32;;
35612;SDS011;22054;51.646;7.078;2023-03-01T07:31:31;0.22;;;0.22;;
35612;SDS011;22054;51.646;7.078;2023-03-01T07:33:57;0.40;;;0.40;;
35612;SDS011;22054;51.646;7.078;2023-03-01T07:36:23;0.40;;;0.40;;
35612;SDS011;22054;51.646;7.078;2023-03-01T07:38:49;0.30;;;0.30;;
35612;SDS011;22054;51.646;7.078;2023-03-01T07:41:16;0.40;;;0.40;;
35612;SDS011;22054;51.646;7.078;2023-03-01T07:43:42;0.30;;;0.30;;
35612;SDS011;22054;51.646;7.078;2023-03-01T07:46:07;0.20;;;0.20;;
35612;SDS011;22054;51.646;7.078;2023-03-01T07:48:33;0.10;;;0.10;;
35612;SDS011;22054;51.646;7.078;2023-03-01T07:50:59;0.20;;;0.20;;
35612;SDS011;22054;51.646;7.078;2023-03-01T07:53:26;0.10;;;0.10;;
35612;SDS011;22054;51.646;7.078;2023-03-01T07:56:05;0.10;;;0.10;;
35612;SDS011;22054;51.646;7.078;2023-03-01T07:58:34;0.10;;;0.10;;
35612;SDS011;22054;51.646;7.078;2023-03-01T08:01:01;0.10;;;0.10;;
35612;SDS011;22054;51.646;7.078;2023-03-01T08:03:33;0.10;;;0.10;;
35612;SDS011;22054;51.646;7.078;2023-03-01T08:06:01;0.10;;;0.10;;
35612;SDS011;22054;51.646;7.078;2023-03-01T08:08:28;0.10;;;0.10;;
35612;SDS011;22054;51.646;7.078;2023-03-01T08:10:57;0.17;;;0.17;;
35612;SDS011;22054;51.646;7.078;2023-03-01T08:13:25;0.20;;;0.20;;
35612;SDS011;22054;51.646;7.078;2023-03-01T08:15:51;0.10;;;0.10;;
35612;SDS011;22054;51.646;7.078;2023-03-01T08:18:18;0.20;;;0.20;;
35612;SDS011;22054;51.646;7.078;2023-03-01T08:20:45;0.20;;;0.20;;
35612;SDS011;22054;51.646;7.078;2023-03-01T08:23:11;0.30;;;0.30;;
35612;SDS011;22054;51.646;7.078;2023-03-01T08:25:37;0.10;;;0.10;;
35612;SDS011;22054;51.646;7.078;2023-03-01T08:28:03;0.20;;;0.20;;
35612;SDS011;22054;51.646;7.078;2023-03-01T08:30:30;0.10;;;0.10;;
35612;SDS011;22054;51.646;7.078;2023-03-01T08:32:56;0.15;;;0.15;;
35612;SDS011;22054;51.646;7.078;2023-03-01T08:35:22;0.10;;;0.10;;
35612;SDS011;22054;51.646;7.078;2023-03-01T08:37:48;0.20;;;0.20;;
35612;SDS011;22054;51.646;7.078;2023-03-01T08:40:14;0.10;;;0.10;;
35612;SDS011;22054;51.646;7.078;2023-03-01T08:42:40;0.20;;;0.20;;
35612;SDS011;22054;51.646;7.078;2023-03-01T08:45:08;0.10;;;0.10;;
35612;SDS011;22054;51.646;7.078;2023-03-01T08:47:35;0.10;;;0.10;;
35612;SDS011;22054;51.646;7.078;2023-03-01T08:50:01;0.17;;;0.17;;
35612;SDS011;22054;51.646;7.078;2023-03-01T08:52:27;0.20;;;0.20;;
35612;SDS011;22054;51.646;7.078;2023-03-01T08:54:53;0.20;;;0.20;;
35612;SDS011;22054;51.646;7.078;2023-03-01T08:57:19;0.20;;;0.20;;
35612;SDS011;22054;51.646;7.078;2023-03-01T08:59:45;0.10;;;0.10;;
35612;SDS011;22054;51.646;7.078;2023-03-01T09:02:14;0.20;;;0.20;;
35612;SDS011;22054;51.646;7.078;2023-03-01T09:04:42;0.22;;;0.22;;
35612;SDS011;22054;51.646;7.078;2023-03-01T09:07:09;0.20;;;0.20;;
35612;SDS011;22054;51.646;7.078;2023-03-01T09:09:35;0.10;;;0.10;;
35612;SDS011;22054;51.646;7.078;2023-03-01T09:12:02;0.10;;;0.10;;
35612;SDS011;22054;51.646;7.078;2023-03-01T09:14:28;0.10;;;0.10;;
35612;SDS011;22054;51.646;7.078;2023-03-01T09:16:54;0.10;;;0.10;;
35612;SDS011;22054;51.646;7.078;2023-03-01T09:19:20;0.10;;;0.10;;
35612;SDS011;22054;51.646;7.078;2023-03-01T09:21:46;0.10;;;0.10;;
35612;SDS011;22054;51.646;7.078;2023-03-01T09:24:18;0.10;;;0.10;;
35612;SDS011;22054;51.646;7.078;2023-03-01T09:26:46;0.10;;;0.10;;
35612;SDS011;22054;51.646;7.078;2023-03-01T09:29:12;0.10;;;0.10;;
35612;SDS011;22054;51.646;7.078;2023-03-01T09:31:39;0.10;;;0.10;;
35612;SDS011;22054;51.646;7.078;2023-03-01T09:34:06;0.10;;;0.10;;
35612;SDS011;22054;51.646;7.078;2023-03-01T09:36:32;0.10;;;0.10;;
35612;SDS011;22054;51.646;7.078;2023-03-01T09:38:58;0.20;;;0.20;;
35612;SDS011;22054;51.646;7.078;2023-03-01T09:47:16;0.10;;;0.10;;
35612;SDS011;22054;51.646;7.078;2023-03-01T09:49:47;0.20;;;0.20;;
35612;SDS011;22054;51.646;7.078;2023-03-01T09:52:41;0.20;;;0.20;;
35612;SDS011;22054;51.646;7.078;2023-03-01T09:55:08;0.13;;;0.13;;
35612;SDS011;22054;51.646;7.078;2023-03-01T10:09:23;0.10;;;0.10;;
35612;SDS011;22054;51.646;7.078;2023-03-01T10:11:37;0.10;;;0.10;;
35612;SDS011;22054;51.646;7.078;2023-03-01T10:14:16;0.20;;;0.20;;
35612;SDS011;22054;51.646;7.078;2023-03-01T10:17:05;0.10;;;0.10;;
35612;SDS011;22054;51.646;7.078;2023-03-01T10:19:51;0.10;;;0.10;;
35612;SDS011;22054;51.646;7.078;2023-03-01T10:22:29;0.10;;;0.10;;
35612;SDS011;22054;51.646;7.078;2023-03-01T10:24:59;0.20;;;0.20;;
35612;SDS011;22054;51.646;7.078;2023-03-01T10:30:30;0.00;;;0.00;;
35612;SDS011;22054;51.646;7.078;2023-03-01T10:33:04;0.08;;;0.08;;
35612;SDS011;22054;51.646;7.078;2023-03-01T10:35:43;0.10;;;0.10;;
35612;SDS011;22054;51.646;7.078;2023-03-01T10:38:10;0.00;;;0.00;;
35612;SDS011;22054;51.646;7.078;2023-03-01T10:43:32;0.10;;;0.10;;
35612;SDS011;22054;51.646;7.078;2023-03-01T10:46:28;0.05;;;0.05;;
35612;SDS011;22054;51.646;7.078;2023-03-01T10:49:14;0.10;;;0.10;;
35612;SDS011;22054;51.646;7.078;2023-03-01T10:51:49;0.20;;;0.20;;
35612;SDS011;22054;51.646;7.078;2023-03-01T10:54:27;0.10;;;0.10;;
35612;SDS011;22054;51.646;7.078;2023-03-01T10:56:56;0.10;;;0.10;;
35612;SDS011;22054;51.646;7.078;2023-03-01T11:02:13;0.10;;;0.10;;
35612;SDS011;22054;51.646;7.078;2023-03-01T11:08:00;0.00;;;0.00;;
35612;SDS011;22054;51.646;7.078;2023-03-01T11:10:34;0.00;;;0.00;;
35612;SDS011;22054;51.646;7.078;2023-03-01T11:15:44;0.00;;;0.00;;
35612;SDS011;22054;51.646;7.078;2023-03-01T11:18:29;0.03;;;0.03;;
35612;SDS011;22054;51.646;7.078;2023-03-01T11:20:56;0.00;;;0.00;;
35612;SDS011;22054;51.646;7.078;2023-03-01T11:23:25;0.00;;;0.00;;
35612;SDS011;22054;51.646;7.078;2023-03-01T11:26:01;0.00;;;0.00;;
35612;SDS011;22054;51.646;7.078;2023-03-01T11:28:32;0.00;;;0.00;;
35612;SDS011;22054;51.646;7.078;2023-03-01T11:31:04;0.00;;;0.00;;
35612;SDS011;22054;51.646;7.078;2023-03-01T11:34:38;0.00;;;0.00;;
35612;SDS011;22054;51.646;7.078;2023-03-01T11:36:53;0.00;;;0.00;;
35612;SDS011;22054;51.646;7.078;2023-03-01T11:39:42;0.00;;;0.00;;
35612;SDS011;22054;51.646;7.078;2023-03-01T11:42:18;0.00;;;0.00;;
35612;SDS011;22054;51.646;7.078;2023-03-01T11:44:54;0.00;;;0.00;;
35612;SDS011;22054;51.646;7.078;2023-03-01T11:51:05;1.10;;;1.10;;
35612;SDS011;22054;51.646;7.078;2023-03-01T11:57:01;0.00;;;0.00;;
35612;SDS011;22054;51.646;7.078;2023-03-01T12:08:33;0.00;;;0.00;;
35612;SDS011;22054;51.646;7.078;2023-03-01T12:11:36;0.00;;;0.00;;
35612;SDS011;22054;51.646;7.078;2023-03-01T12:17:07;0.00;;;0.00;;
35612;SDS011;22054;51.646;7.078;2023-03-01T12:22:22;0.00;;;0.00;;
35612;SDS011;22054;51.646;7.078;2023-03-01T12:37:12;0.00;;;0.00;;
35612;SDS011;22054;51.646;7.078;2023-03-01T12:51:34;0.00;;;0.00;;
35612;SDS011;22054;51.646;7.078;2023-03-01T12:54:20;0.00;;;0.00;;
35612;SDS011;22054;51.646;7.078;2023-03-01T12:57:02;0.00;;;0.00;;
35612;SDS011;22054;51.646;7.078;2023-03-01T13:00:24;0.00;;;0.00;;
35612;SDS011;22054;51.646;7.078;2023-03-01T13:06:04;0.00;;;0.00;;
35612;SDS011;22054;51.646;7.078;2023-03-01T13:08:58;0.00;;;0.00;;
35612;SDS011;22054;51.646;7.078;2023-03-01T13:11:40;0.00;;;0.00;;
35612;SDS011;22054;51.646;7.078;2023-03-01T13:16:46;0.00;;;0.00;;
35612;SDS011;22054;51.646;7.078;2023-03-01T13:21:51;0.00;;;0.00;;
35612;SDS011;22054;51.646;7.078;2023-03-01T13:24:29;0.00;;;0.00;;
35612;SDS011;22054;51.646;7.078;2023-03-01T13:29:45;0.00;;;0.00;;
35612;SDS011;22054;51.646;7.078;2023-03-01T13:37:43;0.00;;;0.00;;
35612;SDS011;22054;51.646;7.078;2023-03-01T13:42:45;0.00;;;0.00;;
35612;SDS011;22054;51.646;7.078;2023-03-01T13:45:37;0.00;;;0.00;;
35612;SDS011;22054;51.646;7.078;2023-03-01T13:48:15;0.00;;;0.00;;
35612;SDS011;22054;51.646;7.078;2023-03-01T13:50:50;0.00;;;0.00;;
35612;SDS011;22054;51.646;7.078;2023-03-01T13:53:21;0.00;;;0.00;;
35612;SDS011;22054;51.646;7.078;2023-03-01T13:55:52;0.00;;;0.00;;
35612;SDS011;22054;51.646;7.078;2023-03-01T14:00:59;0.00;;;0.00;;
35612;SDS011;22054;51.646;7.078;2023-03-01T14:03:29;0.00;;;0.00;;
35612;SDS011;22054;51.646;7.078;2023-03-01T14:06:15;0.00;;;0.00;;
35612;SDS011;22054;51.646;7.078;2023-03-01T14:14:19;0.00;;;0.00;;
35612;SDS011;22054;51.646;7.078;2023-03-01T14:17:02;0.00;;;0.00;;
35612;SDS011;22054;51.646;7.078;2023-03-01T14:19:56;0.00;;;0.00;;
35612;SDS011;22054;51.646;7.078;2023-03-01T14:24:59;0.00;;;0.00;;
35612;SDS011;22054;51.646;7.078;2023-03-01T14:27:38;0.00;;;0.00;;
35612;SDS011;22054;51.646;7.078;2023-03-01T14:30:19;0.00;;;0.00;;
35612;SDS011;22054;51.646;7.078;2023-03-01T14:32:53;0.00;;;0.00;;
35612;SDS011;22054;51.646;7.078;2023-03-01T14:35:31;0.00;;;0.00;;
35612;SDS011;22054;51.646;7.078;2023-03-01T14:38:00;0.00;;;0.00;;
35612;SDS011;22054;51.646;7.078;2023-03-01T14:40:30;0.00;;;0.00;;
35612;SDS011;22054;51.646;7.078;2023-03-01T14:43:00;0.00;;;0.00;;
35612;SDS011;22054;51.646;7.078;2023-03-01T14:45:34;0.00;;;0.00;;
35612;SDS011;22054;51.646;7.078;2023-03-01T14:48:01;0.00;;;0.00;;
35612;SDS011;22054;51.646;7.078;2023-03-01T14:50:34;0.00;;;0.00;;
35612;SDS011;22054;51.646;7.078;2023-03-01T14:53:05;0.00;;;0.00;;
35612;SDS011;22054;51.646;7.078;2023-03-01T14:55:41;0.00;;;0.00;;
35612;SDS011;22054;51.646;7.078;2023-03-01T15:00:46;0.00;;;0.00;;
35612;SDS011;22054;51.646;7.078;2023-03-01T15:03:27;0.00;;;0.00;;
35612;SDS011;22054;51.646;7.078;2023-03-01T15:06:04;0.00;;;0.00;;
35612;SDS011;22054;51.646;7.078;2023-03-01T15:08:32;0.00;;;0.00;;
35612;SDS011;22054;51.646;7.078;2023-03-01T15:11:01;0.00;;;0.00;;
35612;SDS011;22054;51.646;7.078;2023-03-01T15:13:52;0.00;;;0.00;;
35612;SDS011;22054;51.646;7.078;2023-03-01T15:16:20;0.00;;;0.00;;
35612;SDS011;22054;51.646;7.078;2023-03-01T15:18:53;0.00;;;0.00;;
35612;SDS011;22054;51.646;7.078;2023-03-01T15:21:29;0.00;;;0.00;;
35612;SDS011;22054;51.646;7.078;2023-03-01T15:26:43;0.00;;;0.00;;
35612;SDS011;22054;51.646;7.078;2023-03-01T15:29:31;0.00;;;0.00;;
35612;SDS011;22054;51.646;7.078;2023-03-01T15:32:06;0.00;;;0.00;;
35612;SDS011;22054;51.646;7.078;2023-03-01T15:34:56;0.00;;;0.00;;
35612;SDS011;22054;51.646;7.078;2023-03-01T15:37:35;0.00;;;0.00;;
35612;SDS011;22054;51.646;7.078;2023-03-01T15:40:03;0.00;;;0.00;;
35612;SDS011;22054;51.646;7.078;2023-03-01T15:42:43;0.00;;;0.00;;
35612;SDS011;22054;51.646;7.078;2023-03-01T15:47:52;0.00;;;0.00;;
35612;SDS011;22054;51.646;7.078;2023-03-01T15:50:27;0.00;;;0.00;;
35612;SDS011;22054;51.646;7.078;2023-03-01T15:52:59;0.00;;;0.00;;
35612;SDS011;22054;51.646;7.078;2023-03-01T15:55:30;0.00;;;0.00;;
35612;SDS011;22054;51.646;7.078;2023-03-01T15:58:17;0.00;;;0.00;;
35612;SDS011;22054;51.646;7.078;2023-03-01T16:00:46;0.00;;;0.00;;
35612;SDS011;22054;51.646;7.078;2023-03-01T16:03:13;0.00;;;0.00;;
35612;SDS011;22054;51.646;7.078;2023-03-01T16:05:46;0.00;;;0.00;;
35612;SDS011;22054;51.646;7.078;2023-03-01T16:08:13;0.00;;;0.00;;
35612;SDS011;22054;51.646;7.078;2023-03-01T16:10:41;0.00;;;0.00;;
35612;SDS011;22054;51.646;7.078;2023-03-01T16:13:11;0.00;;;0.00;;
35612;SDS011;22054;51.646;7.078;2023-03-01T16:15:37;0.00;;;0.00;;
35612;SDS011;22054;51.646;7.078;2023-03-01T16:18:04;0.00;;;0.00;;
35612;SDS011;22054;51.646;7.078;2023-03-01T16:20:31;0.00;;;0.00;;
35612;SDS011;22054;51.646;7.078;2023-03-01T16:23:01;0.00;;;0.00;;
35612;SDS011;22054;51.646;7.078;2023-03-01T16:25:30;0.00;;;0.00;;
35612;SDS011;22054;51.646;7.078;2023-03-01T16:27:57;0.00;;;0.00;;
35612;SDS011;22054;51.646;7.078;2023-03-01T16:30:25;0.00;;;0.00;;
35612;SDS011;22054;51.646;7.078;2023-03-01T16:32:51;0.00;;;0.00;;
35612;SDS011;22054;51.646;7.078;2023-03-01T16:35:18;0.00;;;0.00;;
35612;SDS011;22054;51.646;7.078;2023-03-01T16:37:45;0.00;;;0.00;;
35612;SDS011;22054;51.646;7.078;2023-03-01T16:40:16;0.00;;;0.00;;
35612;SDS011;22054;51.646;7.078;2023-03-01T16:42:51;0.00;;;0.00;;
35612;SDS011;22054;51.646;7.078;2023-03-01T16:45:20;0.00;;;0.00;;
35612;SDS011;22054;51.646;7.078;2023-03-01T16:47:46;0.00;;;0.00;;
35612;SDS011;22054;51.646;7.078;2023-03-01T16:50:12;0.00;;;0.00;;
35612;SDS011;22054;51.646;7.078;2023-03-01T16:52:38;0.00;;;0.00;;
35612;SDS011;22054;51.646;7.078;2023-03-01T16:55:04;0.00;;;0.00;;
35612;SDS011;22054;51.646;7.078;2023-03-01T16:57:34;0.00;;;0.00;;
35612;SDS011;22054;51.646;7.078;2023-03-01T17:00:03;0.00;;;0.00;;
35612;SDS011;22054;51.646;7.078;2023-03-01T17:02:32;0.08;;;0.08;;
35612;SDS011;22054;51.646;7.078;2023-03-01T17:05:01;0.00;;;0.00;;
35612;SDS011;22054;51.646;7.078;2023-03-01T17:07:28;0.00;;;0.00;;
35612;SDS011;22054;51.646;7.078;2023-03-01T17:09:58;0.10;;;0.10;;
35612;SDS011;22054;51.646;7.078;2023-03-01T17:12:28;0.00;;;0.00;;
35612;SDS011;22054;51.646;7.078;2023-03-01T17:14:54;0.00;;;0.00;;
35612;SDS011;22054;51.646;7.078;2023-03-01T17:17:20;0.00;;;0.00;;
35612;SDS011;22054;51.646;7.078;2023-03-01T17:19:46;0.10;;;0.10;;
35612;SDS011;22054;51.646;7.078;2023-03-01T17:22:12;0.00;;;0.00;;
35612;SDS011;22054;51.646;7.078;2023-03-01T17:24:38;0.10;;;0.10;;